createdAt,value
2023-04-10T00:05:50.325Z,76.7
2023-04-10T00:11:50.347Z,76.9
2023-04-10T00:17:50.349Z,77.4
2023-04-10T00:23:50.319Z,78.4
2023-04-10T00:29:50.311Z,78.7
2023-04-10T00:35:50.344Z,79.2
2023-04-10T00:41:50.336Z,80
2023-04-10T00:47:50.356Z,80.3
2023-04-10T00:53:50.334Z,81.2
2023-04-10T00:59:50.328Z,81.6
2023-04-10T01:05:50.323Z,81.7
2023-04-10T01:11:50.340Z,82
2023-04-10T01:17:50.372Z,81.5
2023-04-10T01:23:50.313Z,81.2
2023-04-10T01:29:50.320Z,81.8
2023-04-10T01:35:50.390Z,81.5
2023-04-10T01:41:50.392Z,81.9
2023-04-10T01:47:50.364Z,82.2
2023-04-10T01:53:50.330Z,81.6
2023-04-10T01:59:50.316Z,82
2023-04-10T02:11:50.311Z,84.1
2023-04-10T02:17:50.402Z,83.7
2023-04-10T02:23:50.340Z,83.2
2023-04-10T02:29:50.305Z,82.8
2023-04-10T02:41:50.334Z,81.4
2023-04-10T02:47:50.422Z,80.8
2023-04-10T02:53:50.325Z,80.3
2023-04-10T02:59:50.313Z,79.3
2023-04-10T03:05:50.323Z,78.2
2023-04-10T03:11:50.305Z,77.6
2023-04-10T03:17:50.344Z,77.1
2023-04-10T03:23:50.533Z,77.1
2023-04-10T03:29:50.306Z,76.9
2023-04-10T03:41:50.321Z,77.2
2023-04-10T03:47:50.336Z,77.4
2023-04-10T03:53:50.379Z,77.5
2023-04-10T03:59:50.310Z,78
2023-04-10T04:05:50.316Z,78.7
2023-04-10T04:11:50.295Z,79.3
2023-04-10T04:17:50.345Z,79.9
2023-04-10T04:23:50.307Z,80.5
2023-04-10T04:29:50.322Z,80.2
2023-04-10T04:35:50.341Z,80.3
2023-04-10T04:41:50.304Z,81
2023-04-10T04:47:50.370Z,81.1
2023-04-10T04:53:50.306Z,81.2
2023-04-10T04:59:50.321Z,81.1
2023-04-10T05:05:50.318Z,80.8
2023-04-10T05:12:00.577Z,81
2023-04-10T05:17:50.371Z,80.2
2023-04-10T05:23:50.290Z,80.3
2023-04-10T05:29:50.292Z,79.9
2023-04-10T05:35:50.361Z,79.8
2023-04-10T05:41:50.303Z,79.7
2023-04-10T05:47:50.378Z,79.3
2023-04-10T05:53:50.306Z,78.4
2023-04-10T05:59:50.297Z,77.8
2023-04-10T06:05:50.288Z,76.1
2023-04-10T06:11:50.285Z,74.4
2023-04-10T06:17:50.355Z,71.7
2023-04-10T06:23:50.300Z,69.2
2023-04-10T06:29:50.287Z,68.1
2023-04-10T06:35:50.290Z,61.6
2023-04-10T06:41:50.309Z,53.5
2023-04-10T06:47:50.342Z,49.8
2023-04-10T06:53:50.478Z,46.5
2023-04-10T06:59:50.313Z,46
2023-04-10T07:05:50.314Z,44.9
2023-04-10T07:11:50.318Z,42.3
2023-04-10T07:17:50.303Z,38.4
2023-04-10T07:23:50.284Z,37.5
2023-04-10T07:29:50.308Z,37.1
2023-04-10T07:41:50.293Z,36.7
2023-04-10T07:47:50.340Z,39.6
2023-04-10T07:53:50.307Z,40.2
2023-04-10T07:59:50.304Z,37.6
2023-04-10T08:05:50.311Z,37.9
2023-04-10T08:11:50.315Z,37.9
2023-04-10T08:17:50.353Z,42.1
2023-04-10T08:23:50.348Z,38.9
2023-04-10T08:29:50.304Z,37.7
2023-04-10T08:35:50.332Z,39.5
2023-04-10T08:41:50.346Z,39.9
2023-04-10T08:47:50.327Z,34.5
2023-04-10T08:53:50.318Z,34.9
2023-04-10T08:59:50.385Z,36.2
2023-04-10T09:05:50.312Z,37.5
2023-04-10T09:11:50.310Z,37.7
2023-04-10T09:17:50.360Z,38.4
2023-04-10T09:23:50.317Z,39.6
2023-04-10T09:29:50.335Z,39
2023-04-10T09:35:50.319Z,37.4
2023-04-10T09:41:50.338Z,37.5
2023-04-10T09:47:50.332Z,36.6
2023-04-10T09:53:50.312Z,37.8
2023-04-10T09:59:50.337Z,37.7
2023-04-10T10:05:50.332Z,37.5
2023-04-10T10:11:50.316Z,37.7
2023-04-10T10:17:50.394Z,37.9
2023-04-10T10:23:50.329Z,36.2
2023-04-10T10:29:50.345Z,38.2
2023-04-10T10:35:50.328Z,36.9
2023-04-10T10:41:50.331Z,34.2
2023-04-10T10:47:50.350Z,34.2
2023-04-10T10:53:50.329Z,34.2
2023-04-10T10:59:50.366Z,32.5
2023-04-10T11:05:50.357Z,32.4
2023-04-10T11:11:50.342Z,31.3
2023-04-10T11:17:50.372Z,33
2023-04-10T11:23:50.343Z,32.7
2023-04-10T11:29:50.338Z,35.4
2023-04-10T11:35:50.356Z,34.5
2023-04-10T11:41:50.329Z,35
2023-04-10T11:47:50.369Z,35.2
2023-04-10T11:53:50.325Z,33.3
2023-04-10T11:59:50.401Z,33.2
2023-04-10T12:05:50.398Z,35.2
2023-04-10T12:11:50.366Z,35.1
2023-04-10T12:17:50.410Z,35
2023-04-10T12:23:50.452Z,35.3
2023-04-10T12:29:50.452Z,38
2023-04-10T12:35:50.466Z,36.7
2023-04-10T12:41:50.416Z,36.3
2023-04-10T12:47:50.348Z,36
2023-04-10T12:53:50.502Z,37.6
2023-04-10T12:59:50.463Z,36.9
2023-04-10T13:05:50.338Z,35.7
2023-04-10T13:11:51.689Z,37.4
2023-04-10T13:17:50.411Z,36.1
2023-04-10T13:23:50.353Z,36.4
2023-04-10T13:29:50.352Z,35.1
2023-04-10T13:35:50.340Z,33.9
2023-04-10T13:41:50.346Z,37.7
2023-04-10T13:47:50.378Z,33.7
2023-04-10T13:53:50.344Z,33.6
2023-04-10T13:59:50.347Z,36
2023-04-10T14:05:50.374Z,36.3
2023-04-10T14:11:50.340Z,35.6
2023-04-10T14:17:50.369Z,35.3
2023-04-10T14:23:50.355Z,35.2
2023-04-10T14:29:54.738Z,37.7
2023-04-10T14:35:50.444Z,35.5
2023-04-10T14:41:50.419Z,37.4
2023-04-10T14:47:50.506Z,36
2023-04-10T14:53:50.354Z,34.6
2023-04-10T14:59:50.382Z,35.5
2023-04-10T15:05:50.340Z,35.1
2023-04-10T15:11:50.346Z,34.4
2023-04-10T15:17:50.505Z,36
2023-04-10T15:23:50.376Z,34.7
2023-04-10T15:29:50.355Z,35.8
2023-04-10T15:35:50.379Z,37.3
2023-04-10T15:41:50.351Z,33.9
2023-04-10T15:47:50.413Z,36.3
2023-04-10T15:53:50.348Z,36.6
2023-04-10T15:59:50.388Z,35.1
2023-04-10T16:05:50.365Z,37.4
2023-04-10T16:11:50.356Z,38.2
2023-04-10T16:17:50.487Z,38.9
2023-04-10T16:23:50.369Z,38.3
2023-04-10T16:29:50.355Z,38.6
2023-04-10T16:35:50.382Z,39.9
2023-04-10T16:41:50.379Z,38.9
2023-04-10T16:47:50.483Z,40.5
2023-04-10T16:53:50.357Z,40.4
2023-04-10T16:59:50.363Z,41.5
2023-04-10T17:05:50.388Z,42
2023-04-10T17:11:50.424Z,43.3
2023-04-10T17:17:50.487Z,41.5
2023-04-10T17:23:50.353Z,42.6
2023-04-10T17:29:50.358Z,43.2
2023-04-10T17:35:50.375Z,44.9
2023-04-10T17:41:50.351Z,47.8
2023-04-10T17:47:50.437Z,48.2
2023-04-10T17:53:50.390Z,52.7
2023-04-10T17:59:50.368Z,53.1
2023-04-10T18:05:50.356Z,52.3
2023-04-10T18:11:50.364Z,54.4
2023-04-10T18:17:50.391Z,55.3
2023-04-10T18:23:50.369Z,58.2
2023-04-10T18:29:50.384Z,55.6
2023-04-10T18:35:50.416Z,58
2023-04-10T18:41:50.358Z,61.6
2023-04-10T18:48:00.741Z,67.2
2023-04-10T18:53:50.361Z,66.2
2023-04-10T18:59:50.358Z,66.3
2023-04-10T19:05:50.360Z,65.9
2023-04-10T19:11:50.373Z,68.1
2023-04-10T19:17:50.402Z,68.3
2023-04-10T19:23:50.392Z,69.6
2023-04-10T19:29:50.374Z,69.5
2023-04-10T19:35:50.383Z,72.4
2023-04-10T19:41:50.381Z,71.9
2023-04-10T19:47:50.408Z,71.3
2023-04-10T19:53:50.381Z,71.4
2023-04-10T19:59:50.383Z,76.4
2023-04-10T20:05:50.658Z,77
2023-04-10T20:11:50.360Z,85.2
2023-04-10T20:17:50.381Z,87.8
2023-04-10T20:23:50.372Z,95.1
2023-04-10T20:29:50.355Z,100
2023-04-10T20:35:50.422Z,100
2023-04-10T20:41:50.389Z,100
2023-04-10T20:47:50.424Z,100
2023-04-10T20:53:50.366Z,100
2023-04-10T20:59:50.386Z,100
2023-04-10T21:11:50.383Z,100
2023-04-10T21:17:50.467Z,100
2023-04-10T21:23:50.408Z,100
2023-04-10T21:29:50.381Z,100
2023-04-10T21:35:50.409Z,100
2023-04-10T21:41:50.383Z,100
2023-04-10T21:47:50.363Z,100
2023-04-10T21:53:50.365Z,100
2023-04-10T21:59:50.412Z,100
2023-04-10T22:05:50.361Z,100
2023-04-10T22:11:50.380Z,100
2023-04-10T22:17:50.463Z,100
2023-04-10T22:23:50.395Z,100
2023-04-10T22:30:02.085Z,100
2023-04-10T22:35:50.399Z,100
2023-04-10T22:41:50.370Z,100
2023-04-10T22:47:50.398Z,100
2023-04-10T22:53:50.376Z,100
2023-04-10T22:59:50.373Z,100
2023-04-10T23:05:50.402Z,100
2023-04-10T23:11:50.370Z,100
2023-04-10T23:17:50.367Z,100
2023-04-10T23:23:50.382Z,100
2023-04-10T23:29:50.380Z,100
2023-04-10T23:35:50.416Z,100
2023-04-10T23:41:50.383Z,100
2023-04-10T23:47:51.137Z,100
2023-04-10T23:53:50.709Z,100
2023-04-10T23:59:50.368Z,100
